createdAt,value
2023-06-19T00:00:50.172Z,24.52
2023-06-19T00:05:59.907Z,24.47
2023-06-19T00:11:06.498Z,24.45
2023-06-19T00:16:09.830Z,24.42
2023-06-19T00:21:14.803Z,24.40
2023-06-19T00:26:25.597Z,24.38
2023-06-19T00:31:28.604Z,24.39
2023-06-19T00:36:42.027Z,24.37
2023-06-19T00:41:45.468Z,24.29
2023-06-19T00:46:51.041Z,24.24
2023-06-19T00:51:56.838Z,24.20
2023-06-19T00:57:01.408Z,24.18
2023-06-19T01:05:21.199Z,24.13
2023-06-19T01:10:34.749Z,24.13
2023-06-19T01:15:38.513Z,24.09
2023-06-19T01:20:42.485Z,24.05
2023-06-19T01:25:46.546Z,23.97
2023-06-19T01:31:03.968Z,23.86
2023-06-19T01:36:25.847Z,23.77
2023-06-19T01:41:29.272Z,23.71
2023-06-19T01:46:31.701Z,23.68
2023-06-19T01:51:38.829Z,23.66
2023-06-19T01:56:44.954Z,23.65
2023-06-19T02:01:50.856Z,23.65
2023-06-19T02:07:01.346Z,23.62
2023-06-19T02:12:18.020Z,23.62
2023-06-19T02:17:31.302Z,23.60
2023-06-19T02:22:39.433Z,23.60
2023-06-19T02:27:45.966Z,23.59
2023-06-19T02:33:11.856Z,23.59
2023-06-19T02:38:15.665Z,23.59
2023-06-19T02:43:55.401Z,23.58
2023-06-19T02:49:14.149Z,23.63
2023-06-19T02:54:29.434Z,23.69
2023-06-19T03:00:00.884Z,23.79
2023-06-19T03:05:17.364Z,23.85
2023-06-19T03:10:19.855Z,23.91
2023-06-19T03:15:22.321Z,23.95
2023-06-19T03:20:27.786Z,23.99
2023-06-19T03:25:36.472Z,24.08
2023-06-19T03:30:39.941Z,24.09
2023-06-19T03:35:48.887Z,24.07
2023-06-19T03:41:09.663Z,24.09
2023-06-19T03:46:19.133Z,24.14
2023-06-19T03:51:24.449Z,24.14
2023-06-19T03:56:32.706Z,24.17
2023-06-19T04:02:15.106Z,24.12
2023-06-19T04:07:22.681Z,24.06
2023-06-19T04:12:25.421Z,24.05
2023-06-19T04:17:31.309Z,24.04
2023-06-19T04:22:33.558Z,24.06
2023-06-19T04:27:38.640Z,24.10
2023-06-19T04:32:42.071Z,24.10
2023-06-19T04:37:44.548Z,24.14
2023-06-19T04:42:46.583Z,24.18
2023-06-19T04:47:53.945Z,24.17
2023-06-19T04:52:56.465Z,24.21
2023-06-19T04:57:58.575Z,24.24
2023-06-19T05:03:00.869Z,24.28
2023-06-19T05:08:03.432Z,24.32
2023-06-19T05:13:05.626Z,24.31
2023-06-19T05:18:07.747Z,24.30
2023-06-19T05:23:19.114Z,24.29
2023-06-19T05:28:21.344Z,24.27
2023-06-19T05:33:24.753Z,24.27
2023-06-19T05:38:29.486Z,24.27
2023-06-19T05:43:34.593Z,24.29
2023-06-19T05:48:36.883Z,24.27
2023-06-19T05:53:40.079Z,24.28
2023-06-19T05:58:42.582Z,24.29
2023-06-19T06:03:45.786Z,24.40
2023-06-19T06:08:50.466Z,24.48
2023-06-19T06:13:52.601Z,24.60
2023-06-19T06:18:54.806Z,24.71
2023-06-19T06:23:59.560Z,24.84
2023-06-19T06:29:02.291Z,24.93
2023-06-19T06:34:05.312Z,25.06
2023-06-19T06:39:07.732Z,25.19
2023-06-19T06:44:10.133Z,25.38
2023-06-19T06:49:13.633Z,25.56
2023-06-19T06:54:15.994Z,25.72
2023-06-19T06:59:18.178Z,25.87
2023-06-19T07:04:20.474Z,26.07
2023-06-19T07:09:22.815Z,26.12
2023-06-19T07:14:25.035Z,26.18
2023-06-19T07:19:30.877Z,26.15
2023-06-19T07:24:33.617Z,26.12
2023-06-19T07:29:35.819Z,26.02
2023-06-19T07:34:37.836Z,25.96
2023-06-19T07:39:40.041Z,25.95
2023-06-19T07:44:42.530Z,25.96
2023-06-19T07:49:44.781Z,26.00
2023-06-19T07:54:57.611Z,26.18
2023-06-19T07:59:59.664Z,26.31
2023-06-19T08:05:04.513Z,26.33
2023-06-19T08:10:13.050Z,26.33
2023-06-19T08:15:16.654Z,26.34
2023-06-19T08:20:19.392Z,26.30
2023-06-19T08:25:24.322Z,26.26
2023-06-19T08:30:29.799Z,26.26
2023-06-19T08:35:32.323Z,26.25
2023-06-19T08:40:35.024Z,26.21
2023-06-19T08:45:37.204Z,26.06
2023-06-19T08:50:40.193Z,25.93
2023-06-19T08:55:42.257Z,25.81
2023-06-19T09:00:48.866Z,25.69
2023-06-19T09:05:54.819Z,25.55
2023-06-19T09:11:09.115Z,25.45
2023-06-19T09:16:12.891Z,25.44
2023-06-19T09:21:20.093Z,25.44
2023-06-19T09:26:26.759Z,25.45
2023-06-19T09:31:35.363Z,25.49
2023-06-19T09:36:38.456Z,25.61
2023-06-19T09:41:45.515Z,25.77
2023-06-19T09:46:50.862Z,25.89
2023-06-19T09:51:53.640Z,25.99
2023-06-19T09:56:59.606Z,26.13
2023-06-19T10:02:07.717Z,26.23
2023-06-19T10:07:28.654Z,26.31
2023-06-19T10:12:44.756Z,26.56
2023-06-19T10:17:52.329Z,26.86
2023-06-19T10:23:04.502Z,27.11
2023-06-19T10:28:22.520Z,27.34
2023-06-19T10:33:30.075Z,27.61
2023-06-19T10:38:32.335Z,27.81
2023-06-19T10:43:34.590Z,27.97
2023-06-19T10:48:39.225Z,28.12
2023-06-19T10:53:42.986Z,28.25
2023-06-19T10:58:45.143Z,28.25
2023-06-19T11:03:47.379Z,28.25
2023-06-19T11:08:54.353Z,28.22
2023-06-19T11:13:56.598Z,28.35
2023-06-19T11:18:59.274Z,28.45
2023-06-19T11:24:01.580Z,28.52
2023-06-19T11:29:14.150Z,28.59
2023-06-19T11:34:24.342Z,28.66
2023-06-19T11:39:29.253Z,28.76
2023-06-19T11:44:31.481Z,28.87
2023-06-19T11:49:37.450Z,28.95
2023-06-19T11:54:39.531Z,29.04
2023-06-19T11:59:42.604Z,29.12
2023-06-19T12:04:44.864Z,29.12
2023-06-19T12:09:47.030Z,29.13
2023-06-19T12:14:49.347Z,29.14
2023-06-19T12:19:51.582Z,29.15
2023-06-19T12:25:09.184Z,29.24
2023-06-19T12:30:11.847Z,29.30
2023-06-19T12:35:14.178Z,29.37
2023-06-19T12:40:18.108Z,29.39
2023-06-19T12:45:20.347Z,29.40
2023-06-19T12:50:29.808Z,29.41
2023-06-19T12:55:37.186Z,29.31
2023-06-19T13:00:53.131Z,29.23
2023-06-19T13:05:55.264Z,29.15
2023-06-19T13:10:57.734Z,29.09
2023-06-19T13:16:01.792Z,29.06
2023-06-19T13:21:04.385Z,29.09
2023-06-19T13:26:08.151Z,29.15
2023-06-19T13:31:10.601Z,29.08
2023-06-19T13:36:13.090Z,28.99
2023-06-19T13:41:26.123Z,28.90
2023-06-19T13:46:29.472Z,28.80
2023-06-19T13:52:33.382Z,28.73
2023-06-19T13:57:41.020Z,28.82
2023-06-19T14:02:45.745Z,29.02
2023-06-19T14:07:57.984Z,29.12
2023-06-19T14:13:05.488Z,29.24
2023-06-19T14:18:12.211Z,29.24
2023-06-19T14:23:18.517Z,29.22
2023-06-19T14:28:27.679Z,29.08
2023-06-19T14:33:39.068Z,28.91
2023-06-19T14:38:45.646Z,28.78
2023-06-19T14:43:51.243Z,28.83
2023-06-19T14:49:02.698Z,28.84
2023-06-19T14:54:16.436Z,28.82
2023-06-19T14:59:27.764Z,28.80
2023-06-19T15:04:34.357Z,28.79
2023-06-19T15:09:52.114Z,28.77
2023-06-19T15:14:55.891Z,28.73
2023-06-19T15:20:06.933Z,28.63
2023-06-19T15:25:18.267Z,28.50
2023-06-19T15:30:34.602Z,28.38
2023-06-19T15:35:51.138Z,28.26
2023-06-19T15:41:03.501Z,28.18
2023-06-19T15:46:10.415Z,28.06
2023-06-19T15:51:17.273Z,27.97
2023-06-19T15:56:28.886Z,27.91
2023-06-19T16:01:44.206Z,27.84
2023-06-19T16:06:52.248Z,27.78
2023-06-19T16:11:59.482Z,27.79
2023-06-19T16:17:14.421Z,27.81
2023-06-19T16:22:21.744Z,27.77
2023-06-19T16:27:27.588Z,27.62
2023-06-19T16:32:38.430Z,27.36
2023-06-19T16:38:00.165Z,27.21
2023-06-19T16:43:05.087Z,27.19
2023-06-19T16:55:16.548Z,27.18
2023-06-19T17:05:37.568Z,27.23
2023-06-19T17:10:46.106Z,27.22
2023-06-19T17:15:52.013Z,27.09
2023-06-19T17:20:59.048Z,27.02
2023-06-19T17:26:09.557Z,27.00
2023-06-19T17:31:17.947Z,26.98
2023-06-19T17:36:23.275Z,26.91
2023-06-19T17:41:30.865Z,26.82
2023-06-19T17:46:41.765Z,26.78
2023-06-19T17:51:57.030Z,26.67
2023-06-19T17:57:12.603Z,26.63
2023-06-19T18:02:19.900Z,26.48
2023-06-19T18:07:23.033Z,26.26
2023-06-19T18:12:30.951Z,26.20
2023-06-19T18:17:39.229Z,26.17
2023-06-19T18:22:50.186Z,26.09
2023-06-19T18:48:08.879Z,25.74
2023-06-19T18:53:14.785Z,25.72
2023-06-19T18:58:23.806Z,25.70
2023-06-19T19:03:39.483Z,25.59
2023-06-19T19:09:01.388Z,25.45
2023-06-19T19:14:15.981Z,25.33
2023-06-19T19:19:20.361Z,25.29
2023-06-19T19:24:38.546Z,25.27
2023-06-19T19:29:44.307Z,25.32
2023-06-19T19:35:11.425Z,25.38
2023-06-19T19:40:22.423Z,25.36
2023-06-19T19:45:39.314Z,25.40
2023-06-19T19:50:43.563Z,25.44
2023-06-19T19:56:05.002Z,25.48
2023-06-19T20:01:21.071Z,25.50
2023-06-19T20:06:27.217Z,25.49
2023-06-19T20:11:31.252Z,25.46
2023-06-19T20:16:37.951Z,25.43
2023-06-19T20:21:44.088Z,25.34
2023-06-19T20:26:53.161Z,25.34
2023-06-19T20:31:56.077Z,25.37
2023-06-19T20:37:02.259Z,25.38
2023-06-19T20:42:08.115Z,25.40
2023-06-19T20:47:16.089Z,25.43
2023-06-19T20:52:20.636Z,25.42
2023-06-19T20:57:30.324Z,25.39
2023-06-19T21:02:37.178Z,25.38
2023-06-19T21:07:42.895Z,25.34
2023-06-19T21:12:55.467Z,25.34
2023-06-19T21:18:01.145Z,25.29
2023-06-19T21:23:07.591Z,25.23
2023-06-19T21:28:16.104Z,25.18
2023-06-19T21:33:21.449Z,25.14
2023-06-19T21:38:32.341Z,25.15
2023-06-19T21:43:35.096Z,25.13
2023-06-19T21:48:42.483Z,25.13
2023-06-19T21:53:58.691Z,25.13
2023-06-19T21:59:04.279Z,25.12
2023-06-19T22:04:13.702Z,25.13
2023-06-19T22:09:28.982Z,25.08
2023-06-19T22:14:43.530Z,25.05
2023-06-19T22:19:54.936Z,25.05
2023-06-19T22:24:59.561Z,25.11
2023-06-19T22:30:12.156Z,25.11
2023-06-19T22:35:19.836Z,25.12
2023-06-19T22:40:35.207Z,25.12
2023-06-19T22:45:43.194Z,25.10
2023-06-19T22:50:54.507Z,25.07
2023-06-19T22:56:06.361Z,25.01
2023-06-19T23:01:19.481Z,24.99
2023-06-19T23:06:28.983Z,24.98
2023-06-19T23:11:37.361Z,24.95
2023-06-19T23:16:49.236Z,24.96
2023-06-19T23:21:58.147Z,25.00
2023-06-19T23:27:08.822Z,25.03
2023-06-19T23:32:17.762Z,25.08
2023-06-19T23:37:22.029Z,25.08
2023-06-19T23:42:28.183Z,25.06
2023-06-19T23:47:41.816Z,25.05
2023-06-19T23:52:50.459Z,25.04
2023-06-19T23:57:56.735Z,25.01
